Time;durP1;ratioP1;P1;durP2;ratioP2;P2;SDS_P1;SDS_P2;PMS_P1;PMS_P2;Temp;Humidity;BMP_temperature;BMP_pressure;BME280_temperature;BME280_humidity;BME280_pressure;Samples;Min_cycle;Max_cycle;Signal;HPM_P1;HPM_P2
2022/09/04 00:02:03;;;;;;;11.18;8.00;;;15.70;99.90;;;;;;5090219;28;20135;-69
2022/09/04 00:05:04;;;;;;;10.02;8.55;;;15.60;99.90;;;;;;5044785;28;20056;-69
2022/09/04 00:07:34;;;;;;;13.33;8.80;;;15.60;99.90;;;;;;5049997;28;20060;-69
2022/09/04 00:10:18;;;;;;;11.32;9.38;;;15.60;99.90;;;;;;5034097;28;20056;-69
2022/09/04 00:12:48;;;;;;;14.27;9.10;;;15.60;99.90;;;;;;5064193;28;20041;-69
2022/09/04 00:15:35;;;;;;;11.32;9.20;;;15.60;99.90;;;;;;5060789;28;20076;-70
2022/09/04 00:18:10;;;;;;;11.95;8.63;;;15.50;99.90;;;;;;5040119;28;20518;-70
2022/09/04 00:20:53;;;;;;;13.60;8.95;;;15.50;99.90;;;;;;5054639;28;20527;-70
2022/09/04 00:23:34;;;;;;;10.27;8.13;;;15.50;99.90;;;;;;5029535;28;20056;-70
2022/09/04 00:26:07;;;;;;;9.65;8.15;;;15.50;99.90;;;;;;5061302;28;20060;-69
2022/09/04 00:28:45;;;;;;;10.00;8.18;;;15.50;99.90;;;;;;5057962;28;20793;-70
2022/09/04 00:31:29;;;;;;;12.25;9.40;;;15.50;99.90;;;;;;5061706;28;20517;-69
2022/09/04 00:34:06;;;;;;;10.27;8.05;;;15.40;99.90;;;;;;5056379;28;20490;-69
2022/09/04 00:36:41;;;;;;;10.98;8.23;;;15.40;99.90;;;;;;5067202;28;20143;-69
2022/09/04 00:39:21;;;;;;;9.52;7.82;;;15.40;99.90;;;;;;5061252;28;20037;-69
2022/09/04 00:41:51;;;;;;;11.50;8.23;;;15.40;99.90;;;;;;5081967;28;20040;-69
2022/09/04 00:44:33;;;;;;;10.18;8.50;;;15.40;99.90;;;;;;5086172;28;20044;-69
2022/09/04 00:47:38;;;;;;;11.30;8.48;;;15.40;99.90;;;;;;5089869;28;20490;-69
2022/09/04 00:50:10;;;;;;;10.63;8.93;;;15.30;99.90;;;;;;5097283;28;20448;-69
2022/09/04 00:53:05;;;;;;;10.25;8.10;;;15.30;99.90;;;;;;5093625;28;20122;-69
2022/09/04 00:55:49;;;;;;;10.15;8.50;;;15.30;99.90;;;;;;5099564;28;20075;-69
2022/09/04 00:58:29;;;;;;;9.90;8.57;;;15.30;99.90;;;;;;5090214;28;20485;-68
2022/09/04 01:00:58;;;;;;;9.98;8.23;;;15.30;99.90;;;;;;5102497;28;20134;-68
2022/09/04 01:03:58;;;;;;;11.80;8.30;;;15.20;99.90;;;;;;5105532;27;20135;-69
2022/09/04 01:06:55;;;;;;;10.70;8.43;;;15.20;99.90;;;;;;5091105;28;20063;-69
2022/09/04 01:09:36;;;;;;;11.93;9.38;;;15.10;99.90;;;;;;5113214;27;20135;-69
2022/09/04 01:12:29;;;;;;;12.80;9.18;;;15.10;99.90;;;;;;5095863;28;20446;-69
2022/09/04 01:15:14;;;;;;;10.90;8.90;;;15.10;99.90;;;;;;5088506;28;20071;-70
2022/09/04 01:17:48;;;;;;;11.82;9.40;;;15.00;99.90;;;;;;5098414;28;20078;-70
2022/09/04 01:20:36;;;;;;;10.07;8.80;;;15.00;99.90;;;;;;5098926;28;20035;-69
2022/09/04 01:23:35;;;;;;;11.48;9.05;;;15.00;99.90;;;;;;5080866;28;20201;-68
2022/09/04 01:26:18;;;;;;;9.98;8.18;;;15.00;99.90;;;;;;5090144;28;20469;-69
2022/09/04 01:28:52;;;;;;;11.95;8.60;;;14.90;99.90;;;;;;5098241;28;20043;-69
2022/09/04 01:31:41;;;;;;;10.13;7.75;;;14.90;99.90;;;;;;5096591;27;20118;-69
2022/09/04 01:34:38;;;;;;;14.45;8.23;;;14.90;99.90;;;;;;5090858;28;20091;-69
2022/09/04 01:37:19;;;;;;;11.23;8.23;;;14.80;99.90;;;;;;5089295;28;20109;-69
2022/09/04 01:40:02;;;;;;;9.23;7.10;;;14.80;99.90;;;;;;5089203;28;20521;-69
2022/09/04 01:42:35;;;;;;;;;;;14.80;99.90;;;;;;5079687;28;20127;-68
2022/09/04 01:45:04;;;;;;;11.10;7.78;;;14.80;99.90;;;;;;5079838;28;19981;-70
2022/09/04 01:47:54;;;;;;;11.60;8.25;;;14.80;99.90;;;;;;5092000;28;20045;-69
2022/09/04 01:50:24;;;;;;;9.98;7.47;;;14.80;99.90;;;;;;5102607;28;20072;-69
2022/09/04 01:53:08;;;;;;;10.30;8.52;;;14.80;99.90;;;;;;5118046;27;20439;-68
2022/09/04 01:55:48;;;;;;;10.70;8.50;;;14.80;99.90;;;;;;5105922;28;20058;-70
2022/09/04 01:58:41;;;;;;;8.70;7.28;;;14.80;99.90;;;;;;5103483;28;20054;-68
2022/09/04 02:01:27;;;;;;;8.88;7.35;;;14.80;99.90;;;;;;5095549;28;20048;-68
2022/09/04 02:04:17;;;;;;;11.15;7.78;;;14.80;99.90;;;;;;5088562;28;20044;-68
2022/09/04 02:07:09;;;;;;;10.02;7.97;;;14.80;99.90;;;;;;5099714;28;20044;-68
2022/09/04 02:09:56;;;;;;;15.30;11.82;;;14.80;99.90;;;;;;5080987;28;20109;-69
2022/09/04 02:12:59;;;;;;;11.95;9.60;;;14.80;99.90;;;;;;5098247;28;20040;-68
2022/09/04 02:15:28;;;;;;;;;;;14.70;99.90;;;;;;5092245;28;20052;-68
2022/09/04 02:18:11;;;;;;;9.25;7.53;;;14.70;99.90;;;;;;5100009;28;19924;-69
2022/09/04 02:20:45;;;;;;;9.25;7.68;;;14.70;99.90;;;;;;5081178;28;20449;-69
2022/09/04 02:23:34;;;;;;;10.75;8.32;;;14.70;99.90;;;;;;5086295;28;20117;-69
2022/09/04 02:26:25;;;;;;;10.73;7.75;;;14.70;99.90;;;;;;5084976;28;20048;-69
2022/09/04 02:29:11;;;;;;;9.95;7.78;;;14.60;99.90;;;;;;5095825;28;20516;-69
2022/09/04 02:32:10;;;;;;;12.45;7.45;;;14.60;99.90;;;;;;5094413;28;20066;-70
2022/09/04 02:35:02;;;;;;;9.07;7.30;;;14.60;99.90;;;;;;5102811;28;20081;-69
2022/09/04 02:37:52;;;;;;;9.68;7.50;;;14.60;99.90;;;;;;5088127;28;20602;-69
2022/09/04 02:40:23;;;;;;;10.38;7.53;;;14.60;99.90;;;;;;5086698;28;20040;-69
2022/09/04 02:43:20;;;;;;;9.98;7.68;;;14.60;99.90;;;;;;5103703;28;20119;-69
2022/09/04 02:46:25;;;;;;;9.65;6.65;;;14.60;99.90;;;;;;5104844;28;20054;-68
2022/09/04 02:49:06;;;;;;;11.55;7.78;;;14.50;99.90;;;;;;5086887;28;20048;-69
2022/09/04 02:51:42;;;;;;;10.65;7.60;;;14.60;99.90;;;;;;5105322;28;20341;-68
2022/09/04 02:54:28;;;;;;;11.30;8.15;;;14.50;99.90;;;;;;5117288;28;20494;-69
2022/09/04 02:57:26;;;;;;;8.60;6.93;;;14.50;99.90;;;;;;5085116;28;20040;-68
2022/09/04 03:00:06;;;;;;;8.80;7.22;;;14.50;99.90;;;;;;5075239;28;20040;-69
2022/09/04 03:02:42;;;;;;;10.23;7.63;;;14.50;99.90;;;;;;5101123;28;20459;-69
2022/09/04 03:05:25;;;;;;;10.70;7.35;;;14.50;99.90;;;;;;5071624;28;20043;-69
2022/09/04 03:07:52;;;;;;;10.68;7.38;;;14.50;99.90;;;;;;5079618;28;20090;-69
2022/09/04 03:10:34;;;;;;;10.10;6.55;;;14.50;99.90;;;;;;5085700;28;20043;-69
2022/09/04 03:13:53;;;;;;;8.53;6.97;;;14.40;99.90;;;;;;5087219;28;20052;-69
2022/09/04 03:16:34;;;;;;;10.85;7.88;;;14.40;99.90;;;;;;5068892;28;20783;-69
2022/09/04 03:19:20;;;;;;;9.10;7.30;;;14.40;99.90;;;;;;5068563;28;20041;-69
2022/09/04 03:22:09;;;;;;;11.93;7.90;;;14.40;99.90;;;;;;5084462;28;20049;-68
2022/09/04 03:24:41;;;;;;;10.35;7.95;;;14.30;99.90;;;;;;5100413;28;20048;-70
2022/09/04 03:27:14;;;;;;;9.88;7.78;;;14.30;99.90;;;;;;5096657;28;20040;-69
2022/09/04 03:29:50;;;;;;;9.70;6.57;;;14.30;99.90;;;;;;5090155;28;20052;-69
2022/09/04 03:32:27;;;;;;;10.73;8.15;;;14.30;99.90;;;;;;5092502;28;20383;-69
2022/09/04 03:35:19;;;;;;;9.50;7.55;;;14.30;99.90;;;;;;5094309;28;20058;-69
2022/09/04 03:37:51;;;;;;;8.75;7.07;;;14.30;99.90;;;;;;5102456;28;20044;-69
2022/09/04 03:40:34;;;;;;;8.98;7.00;;;14.30;99.90;;;;;;5091437;28;20167;-69
2022/09/04 03:43:05;;;;;;;9.05;7.35;;;14.30;99.90;;;;;;5085754;28;20483;-69
2022/09/04 03:45:44;;;;;;;9.27;7.00;;;14.30;99.90;;;;;;5098437;27;20525;-68
2022/09/04 03:48:20;;;;;;;9.32;7.65;;;14.30;99.90;;;;;;5103678;28;20050;-69
2022/09/04 03:51:24;;;;;;;8.48;6.50;;;14.30;99.90;;;;;;5098199;28;20376;-69
2022/09/04 03:54:03;;;;;;;8.52;7.22;;;14.20;99.90;;;;;;5092008;28;20497;-69
2022/09/04 03:57:05;;;;;;;8.98;6.95;;;14.20;99.90;;;;;;5100504;28;20051;-69
2022/09/04 03:59:39;;;;;;;9.37;6.80;;;14.20;99.90;;;;;;5106695;28;20108;-69
2022/09/04 04:02:14;;;;;;;8.35;6.60;;;14.20;99.90;;;;;;5084116;28;20137;-69
2022/09/04 04:05:01;;;;;;;8.13;5.57;;;14.20;99.90;;;;;;5103103;27;20080;-69
2022/09/04 04:07:45;;;;;;;7.90;6.15;;;14.20;99.90;;;;;;5103617;27;20462;-69
2022/09/04 04:10:36;;;;;;;7.57;6.05;;;14.30;99.90;;;;;;5104298;28;20505;-69
2022/09/04 04:13:35;;;;;;;9.15;6.60;;;14.30;99.90;;;;;;5103583;28;20123;-69
2022/09/04 04:16:39;;;;;;;8.57;6.45;;;14.30;99.90;;;;;;5102774;28;20127;-69
2022/09/04 04:19:13;;;;;;;12.23;7.47;;;14.30;99.90;;;;;;5098629;28;20128;-69
2022/09/04 04:21:54;;;;;;;9.48;6.75;;;14.30;99.90;;;;;;5094390;28;20094;-69
2022/09/04 04:24:28;;;;;;;8.20;6.15;;;14.30;99.90;;;;;;5080636;28;20040;-69
2022/09/04 04:27:04;;;;;;;8.85;6.47;;;14.30;99.90;;;;;;5089790;28;21092;-69
2022/09/04 04:29:41;;;;;;;8.05;6.10;;;14.30;99.90;;;;;;5081789;28;20067;-68
2022/09/04 04:32:45;;;;;;;8.57;6.38;;;14.40;99.90;;;;;;5097331;28;20037;-68
2022/09/04 04:35:31;;;;;;;9.27;5.90;;;14.40;99.90;;;;;;5092333;28;20464;-68
2022/09/04 04:38:39;;;;;;;7.97;5.68;;;14.40;99.90;;;;;;5106513;28;20078;-68
2022/09/04 04:41:25;;;;;;;6.38;5.20;;;14.50;99.90;;;;;;5060334;28;20041;-68
2022/09/04 04:44:19;;;;;;;6.72;5.18;;;14.50;99.90;;;;;;5058493;28;20487;-68
2022/09/04 04:47:18;;;;;;;7.70;5.38;;;14.60;99.90;;;;;;5032032;28;20057;-69
2022/09/04 04:50:09;;;;;;;6.35;4.93;;;14.60;99.90;;;;;;5045760;28;20056;-69
2022/09/04 04:53:04;;;;;;;6.38;5.25;;;14.60;99.90;;;;;;5060158;28;20052;-69
2022/09/04 04:55:48;;;;;;;9.30;4.97;;;14.70;99.90;;;;;;5050902;28;20478;-69
2022/09/04 04:58:49;;;;;;;7.68;5.30;;;14.70;99.90;;;;;;5062932;28;20068;-68
2022/09/04 05:01:33;;;;;;;7.40;5.28;;;14.80;99.90;;;;;;5022295;28;20143;-69
2022/09/04 05:04:30;;;;;;;7.95;5.40;;;14.80;99.90;;;;;;5057475;28;20514;-69
2022/09/04 05:07:16;;;;;;;8.38;5.20;;;14.90;99.90;;;;;;5058065;28;20086;-69
2022/09/04 05:09:59;;;;;;;8.57;6.00;;;15.00;99.90;;;;;;5040256;28;20444;-69
2022/09/04 05:13:03;;;;;;;6.82;5.28;;;15.10;99.90;;;;;;5071710;28;20071;-69
2022/09/04 05:15:36;;;;;;;11.38;5.47;;;15.20;99.90;;;;;;5048763;28;20546;-70
2022/09/04 05:18:33;;;;;;;10.90;7.35;;;15.20;99.90;;;;;;5086797;28;20056;-68
2022/09/04 05:21:27;;;;;;;7.30;5.10;;;15.20;99.90;;;;;;5091743;28;20506;-69
2022/09/04 05:24:19;;;;;;;6.50;5.00;;;15.30;99.90;;;;;;5091964;28;20063;-68
2022/09/04 05:26:52;;;;;;;9.10;5.53;;;15.40;99.90;;;;;;5091827;28;20524;-68
2022/09/04 05:29:43;;;;;;;8.07;5.70;;;15.40;99.90;;;;;;5084210;28;20506;-68
2022/09/04 05:32:29;;;;;;;7.05;5.88;;;15.50;99.90;;;;;;5100773;28;20089;-68
2022/09/04 05:35:15;;;;;;;7.30;5.40;;;15.60;99.90;;;;;;5088606;28;20054;-68
2022/09/04 05:37:55;;;;;;;7.25;5.88;;;15.60;99.90;;;;;;5071524;28;20414;-69
2022/09/04 05:40:23;;;;;;;8.27;5.60;;;15.50;99.90;;;;;;5088980;28;20378;-69
2022/09/04 05:43:05;;;;;;;7.32;5.70;;;15.50;99.90;;;;;;5112633;27;20040;-68
2022/09/04 05:46:03;;;;;;;6.82;5.32;;;15.40;99.90;;;;;;5085033;28;20040;-69
2022/09/04 05:48:41;;;;;;;8.52;5.43;;;15.50;99.90;;;;;;5070597;28;20048;-69
2022/09/04 05:51:18;;;;;;;8.52;6.03;;;15.50;99.90;;;;;;5099869;28;20040;-69
2022/09/04 05:54:27;;;;;;;9.75;5.45;;;15.50;99.90;;;;;;5103203;28;20067;-69
2022/09/04 05:57:19;;;;;;;6.88;5.50;;;15.60;99.90;;;;;;4987529;28;20112;-69
2022/09/04 05:59:58;;;;;;;8.85;4.90;;;15.50;99.90;;;;;;5003829;28;20049;-69
2022/09/04 06:02:46;;;;;;;7.50;5.15;;;15.60;99.90;;;;;;4987579;28;20532;-69
2022/09/04 06:05:32;;;;;;;6.75;5.30;;;15.60;99.90;;;;;;4982418;28;20053;-68
2022/09/04 06:08:05;;;;;;;8.00;6.03;;;15.60;99.90;;;;;;5005005;28;20050;-69
2022/09/04 06:11:33;;;;;;;7.35;5.35;;;15.60;99.90;;;;;;4997863;28;20105;-69
2022/09/04 06:14:39;;;;;;;7.18;5.50;;;15.70;99.90;;;;;;4953113;28;20470;-69
2022/09/04 06:17:37;;;;;;;9.75;7.00;;;15.60;99.90;;;;;;4964519;28;20051;-69
2022/09/04 06:20:27;;;;;;;9.88;6.97;;;15.60;99.90;;;;;;4965674;28;20074;-69
2022/09/04 06:22:56;;;;;;;8.80;6.30;;;15.70;99.90;;;;;;4965473;28;20546;-69
2022/09/04 06:25:40;;;;;;;10.60;7.07;;;15.80;99.90;;;;;;4970965;28;20505;-69
2022/09/04 06:28:16;;;;;;;10.95;7.43;;;15.80;99.90;;;;;;4973303;28;20081;-69
2022/09/04 06:31:05;;;;;;;8.85;6.45;;;15.90;99.90;;;;;;4951934;28;20070;-69
2022/09/04 06:34:05;;;;;;;8.90;6.57;;;16.00;99.90;;;;;;5027280;28;20155;-69
2022/09/04 06:37:03;;;;;;;7.65;6.10;;;16.10;99.90;;;;;;5043306;28;20597;-70
2022/09/04 06:39:59;;;;;;;9.07;6.03;;;16.30;99.90;;;;;;5055606;28;20048;-68
2022/09/04 06:43:05;;;;;;;9.13;6.50;;;16.40;99.90;;;;;;5042491;28;20447;-68
2022/09/04 06:45:42;;;;;;;7.10;5.72;;;16.50;99.90;;;;;;5002268;28;20633;-69
2022/09/04 06:48:46;;;;;;;9.40;6.57;;;16.60;99.90;;;;;;5017058;28;20151;-69
2022/09/04 06:51:25;;;;;;;9.05;7.25;;;16.70;99.90;;;;;;5042651;28;20098;-70
2022/09/04 06:54:19;;;;;;;8.13;6.38;;;16.70;99.90;;;;;;5014700;28;20049;-69
2022/09/04 06:57:07;;;;;;;8.57;6.15;;;16.80;99.90;;;;;;5038196;28;20131;-69
2022/09/04 07:00:02;;;;;;;8.25;6.97;;;16.90;99.90;;;;;;5033227;28;20055;-68
2022/09/04 07:02:48;;;;;;;9.10;6.45;;;17.00;99.90;;;;;;5015586;28;20052;-69
2022/09/04 07:05:42;;;;;;;8.80;6.65;;;17.10;99.90;;;;;;5027892;28;20045;-69
2022/09/04 07:08:28;;;;;;;9.48;7.15;;;17.10;99.90;;;;;;5044659;28;20049;-69
2022/09/04 07:11:15;;;;;;;10.68;7.03;;;17.20;99.90;;;;;;5042734;28;20543;-69
2022/09/04 07:14:21;;;;;;;8.77;6.72;;;17.30;99.90;;;;;;5033452;28;20478;-69
2022/09/04 07:17:18;;;;;;;9.65;7.20;;;17.40;99.90;;;;;;5071063;28;20056;-69
2022/09/04 07:20:14;;;;;;;9.00;6.53;;;17.50;99.90;;;;;;5081415;28;20871;-69
2022/09/04 07:23:01;;;;;;;7.80;6.07;;;17.60;99.90;;;;;;5092128;28;20055;-69
2022/09/04 07:25:28;;;;;;;8.38;5.70;;;17.80;99.90;;;;;;5097495;28;20539;-69
2022/09/04 07:28:26;;;;;;;8.18;6.22;;;17.90;99.90;;;;;;5093861;27;20069;-69
2022/09/04 07:31:06;;;;;;;8.93;6.78;;;18.00;99.90;;;;;;5084399;28;20054;-69
2022/09/04 07:34:10;;;;;;;9.63;7.10;;;18.10;99.90;;;;;;5089826;28;20137;-69
2022/09/04 07:36:44;;;;;;;10.55;7.00;;;18.20;99.90;;;;;;5085164;28;20043;-70
2022/09/04 07:39:20;;;;;;;8.27;5.95;;;18.30;99.90;;;;;;5097261;28;20477;-69
2022/09/04 07:41:59;;;;;;;9.88;6.63;;;18.40;99.90;;;;;;5091568;28;20387;-69
2022/09/04 07:44:49;;;;;;;8.82;6.35;;;18.60;99.90;;;;;;5078074;28;20043;-69
2022/09/04 07:47:30;;;;;;;9.85;6.28;;;18.80;99.90;;;;;;5072103;28;20483;-69
2022/09/04 07:50:22;;;;;;;9.43;5.80;;;19.00;99.90;;;;;;5074919;28;20060;-69
2022/09/04 07:53:16;;;;;;;7.07;5.82;;;19.30;99.90;;;;;;5090970;28;20118;-69
2022/09/04 07:55:50;;;;;;;8.85;5.45;;;19.60;99.90;;;;;;5088958;28;20494;-69
2022/09/04 07:58:27;;;;;;;7.63;5.90;;;19.80;99.90;;;;;;5092340;27;20036;-70
2022/09/04 08:01:01;;;;;;;10.75;6.28;;;19.80;99.90;;;;;;5072843;28;20044;-69
2022/09/04 08:04:04;;;;;;;7.32;6.03;;;19.80;99.90;;;;;;5093638;28;20055;-69
2022/09/04 08:06:40;;;;;;;7.82;6.10;;;19.80;99.90;;;;;;5088414;28;20071;-70
2022/09/04 08:09:37;;;;;;;7.78;6.00;;;20.00;99.90;;;;;;5110617;28;20044;-70
2022/09/04 08:12:26;;;;;;;7.43;5.93;;;20.40;99.90;;;;;;5083156;28;20497;-69
2022/09/04 08:15:09;;;;;;;7.10;5.88;;;20.50;99.90;;;;;;5108912;28;20650;-69
2022/09/04 08:18:00;;;;;;;11.32;6.90;;;20.80;99.90;;;;;;5108882;28;20081;-69
2022/09/04 08:20:49;;;;;;;7.67;5.27;;;20.70;99.90;;;;;;5100997;28;20052;-69
2022/09/04 08:23:36;;;;;;;8.13;6.00;;;21.00;99.90;;;;;;5087046;28;20067;-70
2022/09/04 08:26:22;;;;;;;8.00;5.70;;;21.40;99.90;;;;;;5096652;28;20123;-70
2022/09/04 08:29:05;;;;;;;7.35;5.85;;;21.60;99.90;;;;;;5074869;28;20044;-70
2022/09/04 08:31:41;;;;;;;7.28;5.45;;;21.90;99.90;;;;;;5073983;28;20076;-69
2022/09/04 08:34:23;;;;;;;6.63;5.63;;;22.20;99.90;;;;;;5079170;28;20360;-70
2022/09/04 08:36:53;;;;;;;7.03;5.97;;;22.40;99.90;;;;;;5084521;28;20064;-70
2022/09/04 08:39:33;;;;;;;9.07;5.95;;;22.50;99.90;;;;;;5095090;28;20898;-70
2022/09/04 08:42:38;;;;;;;8.23;6.00;;;22.10;99.90;;;;;;5107050;28;20043;-70
2022/09/04 08:45:33;;;;;;;7.88;6.38;;;21.70;99.90;;;;;;5084889;28;20158;-68
2022/09/04 08:48:31;;;;;;;8.38;6.90;;;21.30;99.90;;;;;;5105437;28;20417;-69
2022/09/04 08:51:28;;;;;;;8.93;6.90;;;21.10;99.90;;;;;;5100653;28;20055;-69
2022/09/04 08:54:04;;;;;;;6.72;5.93;;;21.00;99.90;;;;;;5101990;28;20044;-69
2022/09/04 08:56:41;;;;;;;9.30;5.68;;;21.00;99.90;;;;;;5099593;28;20528;-68
2022/09/04 08:59:43;;;;;;;7.30;5.90;;;20.90;99.90;;;;;;5098456;28;20570;-69
2022/09/04 09:02:47;;;;;;;7.30;5.47;;;20.70;99.90;;;;;;5058431;28;20048;-70
2022/09/04 09:05:57;;;;;;;7.32;5.75;;;20.80;99.90;;;;;;5071519;28;20071;-69
2022/09/04 09:09:02;;;;;;;8.05;6.35;;;20.80;99.90;;;;;;5095496;28;20096;-69
2022/09/04 09:12:07;;;;;;;6.80;5.28;;;20.90;99.90;;;;;;5085291;28;20497;-68
2022/09/04 09:15:38;;;;;;;6.55;5.30;;;21.00;99.90;;;;;;5083719;28;20052;-68
2022/09/04 09:18:19;;;;;;;6.60;4.53;;;21.10;99.90;;;;;;4990585;28;20414;-68
2022/09/04 09:20:47;;;;;;;7.53;4.97;;;21.00;99.90;;;;;;5010685;28;20707;-69
2022/09/04 09:23:14;;;;;;;6.85;4.97;;;21.20;99.90;;;;;;5011802;28;20129;-70
2022/09/04 09:26:05;;;;;;;5.70;4.55;;;21.20;99.90;;;;;;5016112;28;20201;-69
2022/09/04 09:28:59;;;;;;;6.53;4.80;;;21.40;99.90;;;;;;5003151;28;20535;-69
2022/09/04 09:31:48;;;;;;;6.15;4.38;;;21.50;99.90;;;;;;5005022;28;20046;-69
2022/09/04 09:34:39;;;;;;;6.13;4.60;;;21.60;99.90;;;;;;5006360;28;20053;-69
2022/09/04 09:37:48;;;;;;;7.90;5.32;;;21.70;99.90;;;;;;5006324;28;20060;-69
2022/09/04 09:40:54;;;;;;;6.72;4.22;;;21.90;99.90;;;;;;5003753;28;20096;-69
2022/09/04 09:43:40;;;;;;;5.13;3.95;;;21.80;99.90;;;;;;5006121;28;20133;-70
2022/09/04 09:46:19;;;;;;;4.70;3.70;;;22.10;99.90;;;;;;5006195;28;20042;-70
2022/09/04 09:49:02;;;;;;;5.22;4.10;;;22.40;99.90;;;;;;5013346;28;20515;-71
2022/09/04 09:52:02;;;;;;;5.82;4.25;;;22.70;99.90;;;;;;4995826;28;20516;-71
2022/09/04 09:54:57;;;;;;;6.60;4.65;;;22.80;99.90;;;;;;5078190;28;20395;-69
2022/09/04 09:58:14;;;;;;;5.32;4.30;;;22.70;99.90;;;;;;5103074;28;20074;-69
2022/09/04 10:00:58;;;;;;;5.78;4.82;;;22.80;99.90;;;;;;5093201;28;20077;-69
2022/09/04 10:03:58;;;;;;;5.03;4.00;;;23.20;99.90;;;;;;5091906;28;20061;-69
2022/09/04 10:06:40;;;;;;;4.57;3.70;;;23.50;99.90;;;;;;5087493;28;20069;-70
2022/09/04 10:09:19;;;;;;;4.53;3.60;;;23.80;99.90;;;;;;5070292;28;20139;-70
2022/09/04 10:12:11;;;;;;;6.55;4.43;;;24.20;99.90;;;;;;5089578;28;20579;-70
2022/09/04 10:14:44;;;;;;;5.43;4.15;;;24.60;99.90;;;;;;5100345;28;20047;-70
2022/09/04 10:17:44;;;;;;;5.60;4.00;;;24.80;99.90;;;;;;5089619;28;20497;-72
2022/09/04 10:20:24;;;;;;;11.45;7.45;;;24.90;99.90;;;;;;5096490;28;20047;-70
2022/09/04 10:23:10;;;;;;;6.63;4.90;;;24.80;99.90;;;;;;5086244;28;20139;-72
2022/09/04 10:25:49;;;;;;;6.18;4.85;;;24.40;99.90;;;;;;5102213;28;20581;-71
2022/09/04 10:28:31;;;;;;;4.85;4.22;;;24.50;99.90;;;;;;5104976;28;20125;-72
2022/09/04 10:31:29;;;;;;;6.95;5.20;;;24.30;99.90;;;;;;5096826;28;20097;-72
2022/09/04 10:34:00;;;;;;;6.45;4.30;;;24.90;99.90;;;;;;5083904;28;20044;-73
2022/09/04 10:36:39;;;;;;;4.45;3.83;;;25.10;99.90;;;;;;5080549;28;20139;-72
2022/09/04 10:42:29;;;;;;;5.78;4.15;;;25.60;99.90;;;;;;5094373;28;20114;-72
2022/09/04 10:45:31;;;;;;;4.38;3.75;;;25.10;99.90;;;;;;5081914;28;20447;-72
2022/09/04 10:48:07;;;;;;;8.43;4.47;;;24.90;99.90;;;;;;5089596;28;20036;-72
2022/09/04 10:51:03;;;;;;;6.47;3.88;;;24.80;99.90;;;;;;5090215;28;20491;-72
2022/09/04 10:53:42;;;;;;;5.75;3.80;;;24.80;99.90;;;;;;5069195;28;20043;-72
2022/09/04 10:56:16;;;;;;;5.38;3.70;;;25.00;99.90;;;;;;5086799;28;20048;-72
2022/09/04 10:59:09;;;;;;;4.63;3.75;;;25.30;99.90;;;;;;5105378;27;20483;-72
2022/09/04 11:02:01;;;;;;;6.55;4.53;;;25.50;99.90;;;;;;5087672;28;20042;-72
2022/09/04 11:04:46;;;;;;;4.38;3.50;;;25.60;99.90;;;;;;5082686;28;20036;-73
2022/09/04 11:07:42;;;;;;;4.75;3.78;;;25.90;99.90;;;;;;5084294;28;20044;-72
2022/09/04 11:10:28;;;;;;;5.50;4.00;;;26.50;99.90;;;;;;5088284;28;20090;-73
2022/09/04 11:13:30;;;;;;;6.28;3.83;;;27.00;99.90;;;;;;5085159;28;20075;-72
2022/09/04 11:16:52;;;;;;;4.43;3.65;;;26.50;99.90;;;;;;5066784;28;20048;-72
2022/09/04 11:20:00;;;;;;;4.68;4.13;;;25.80;99.90;;;;;;5004995;28;20052;-72
2022/09/04 11:22:46;;;;;;;4.40;4.00;;;25.60;99.90;;;;;;5003742;28;20053;-73
2022/09/04 11:25:32;;;;;;;5.68;3.63;;;25.40;99.90;;;;;;5000037;28;20104;-72
2022/09/04 11:28:02;;;;;;;6.20;3.75;;;25.30;99.90;;;;;;5013542;28;20132;-72
2022/09/04 11:30:40;;;;;;;4.63;3.78;;;25.30;99.90;;;;;;5010424;28;20054;-73
2022/09/04 11:33:54;;;;;;;4.72;4.07;;;25.00;99.90;;;;;;4994466;28;20128;-71
2022/09/04 11:36:58;;;;;;;5.18;3.47;;;25.50;99.90;;;;;;4999016;28;20050;-73
2022/09/04 11:39:34;;;;;;;4.43;3.88;;;26.50;99.90;;;;;;5001442;28;20054;-73
2022/09/04 11:42:51;;;;;;;4.50;4.10;;;27.20;99.90;;;;;;5008546;28;20551;-73
2022/09/04 11:45:48;;;;;;;7.43;4.13;;;27.10;99.90;;;;;;5006496;28;20077;-73
2022/09/04 11:48:30;;;;;;;4.97;4.35;;;26.80;99.90;;;;;;4996310;28;20054;-73
2022/09/04 11:51:40;;;;;;;5.53;4.72;;;27.00;99.90;;;;;;5093036;28;20505;-73
2022/09/04 11:54:53;;;;;;;4.55;3.83;;;27.60;99.90;;;;;;5065789;28;20159;-73
2022/09/04 11:57:34;;;;;;;6.20;3.88;;;28.50;99.90;;;;;;5066618;28;20617;-73
2022/09/04 12:00:13;;;;;;;3.88;3.47;;;28.80;99.90;;;;;;5056274;28;20040;-72
2022/09/04 12:03:11;;;;;;;4.05;3.65;;;28.90;99.90;;;;;;5052080;28;20048;-73
2022/09/04 12:06:13;;;;;;;3.78;3.47;;;29.50;99.90;;;;;;5066325;28;20753;-73
2022/09/04 12:09:19;;;;;;;4.53;3.70;;;30.20;99.90;;;;;;5045528;28;20083;-71
2022/09/04 12:12:40;;;;;;;4.50;4.10;;;30.30;99.90;;;;;;5067302;28;20040;-71
2022/09/04 12:15:26;;;;;;;3.80;3.38;;;30.70;99.90;;;;;;5007651;28;20092;-70
2022/09/04 12:18:19;;;;;;;4.63;4.22;;;31.00;99.90;;;;;;5007381;28;20457;-72
2022/09/04 12:20:54;;;;;;;4.53;4.00;;;31.20;99.90;;;;;;5002007;28;20046;-70
2022/09/04 12:23:42;;;;;;;4.03;3.70;;;31.30;99.90;;;;;;5007526;28;20500;-71
2022/09/04 12:26:48;;;;;;;4.60;4.20;;;31.90;99.90;;;;;;5014765;28;20689;-71
2022/09/04 12:29:23;;;;;;;5.05;3.83;;;31.90;99.90;;;;;;5001620;28;20092;-72
2022/09/04 12:32:10;;;;;;;4.55;4.15;;;32.30;99.90;;;;;;5038917;28;20103;-70
2022/09/04 12:34:56;;;;;;;5.07;3.90;;;32.20;99.80;;;;;;5032229;28;20562;-70
2022/09/04 12:38:06;;;;;;;5.32;4.10;;;32.30;99.30;;;;;;5044367;28;20052;-69
2022/09/04 12:40:45;;;;;;;5.70;5.18;;;32.30;99.90;;;;;;5045146;28;20040;-71
2022/09/04 12:43:25;;;;;;;6.18;5.65;;;31.90;99.20;;;;;;5044658;28;20051;-70
2022/09/04 12:46:13;;;;;;;5.40;4.90;;;32.40;98.80;;;;;;5027955;28;20179;-72
2022/09/04 12:49:02;;;;;;;4.00;3.70;;;32.40;97.80;;;;;;5055190;28;20052;-72
2022/09/04 12:51:49;;;;;;;5.55;3.85;;;32.30;97.40;;;;;;5087650;28;20577;-72
2022/09/04 12:54:37;;;;;;;4.50;4.05;;;33.10;96.10;;;;;;5097170;28;20563;-71
2022/09/04 12:57:32;;;;;;;4.28;3.72;;;33.60;95.20;;;;;;5092645;28;20044;-71
2022/09/04 13:00:11;;;;;;;4.53;3.90;;;34.20;93.50;;;;;;5097867;28;20048;-70
2022/09/04 13:03:10;;;;;;;5.68;5.07;;;34.50;92.20;;;;;;5097629;28;20105;-66
2022/09/04 13:06:00;;;;;;;5.28;3.90;;;35.00;91.70;;;;;;5075288;28;20532;-67
2022/09/04 13:08:33;;;;;;;5.82;5.30;;;35.70;89.80;;;;;;5099656;28;20043;-65
2022/09/04 13:11:03;;;;;;;5.50;4.70;;;35.20;89.20;;;;;;5098977;28;20051;-68
2022/09/04 13:13:55;;;;;;;7.55;5.63;;;35.20;90.30;;;;;;5096592;28;20048;-67
2022/09/04 13:16:35;;;;;;;4.60;4.20;;;35.90;87.60;;;;;;5096566;28;20123;-66
2022/09/04 13:19:18;;;;;;;4.40;4.00;;;35.90;86.70;;;;;;5082394;28;20047;-66
2022/09/04 13:22:15;;;;;;;4.72;4.28;;;37.60;84.30;;;;;;5098708;28;20044;-68
2022/09/04 13:24:57;;;;;;;4.35;3.97;;;39.40;77.70;;;;;;5090874;28;20540;-67
2022/09/04 13:27:49;;;;;;;4.10;3.80;;;38.80;75.40;;;;;;5094245;28;20039;-66
2022/09/04 13:30:23;;;;;;;5.03;3.80;;;39.60;73.00;;;;;;5094956;28;20070;-65
2022/09/04 13:33:05;;;;;;;4.90;4.45;;;40.90;69.80;;;;;;5118963;27;20036;-66
2022/09/04 13:35:48;;;;;;;6.30;5.70;;;41.90;67.40;;;;;;5084092;28;20041;-66
2022/09/04 13:38:47;;;;;;;4.30;3.90;;;42.40;63.90;;;;;;5088165;28;20085;-66
2022/09/04 13:41:42;;;;;;;4.78;3.97;;;43.30;62.10;;;;;;5102081;28;20497;-65
2022/09/04 13:44:21;;;;;;;5.40;5.00;;;43.70;61.50;;;;;;5101345;28;20067;-67
2022/09/04 13:47:03;;;;;;;4.10;3.80;;;44.00;59.00;;;;;;5103706;28;20054;-67
2022/09/04 13:49:47;;;;;;;4.10;3.72;;;44.70;57.40;;;;;;5093774;28;20049;-67
2022/09/04 13:52:23;;;;;;;4.10;3.70;;;44.70;56.00;;;;;;5103430;28;20055;-68
2022/09/04 13:55:18;;;;;;;3.85;3.55;;;42.20;57.00;;;;;;5119231;27;20513;-68
2022/09/04 13:58:18;;;;;;;4.80;4.40;;;39.90;59.80;;;;;;5097237;28;20558;-65
2022/09/04 14:00:51;;;;;;;4.90;4.40;;;36.50;63.90;;;;;;5102577;28;20458;-67
2022/09/04 14:03:28;;;;;;;6.28;4.70;;;35.90;66.90;;;;;;5100499;28;20043;-68
2022/09/04 14:05:57;;;;;;;5.10;4.70;;;36.90;66.10;;;;;;5080922;28;20143;-68
2022/09/04 14:08:30;;;;;;;5.32;4.85;;;36.50;64.70;;;;;;5104545;28;20764;-67
2022/09/04 14:11:19;;;;;;;6.78;6.10;;;35.80;66.20;;;;;;5095764;28;20460;-67
2022/09/04 14:14:14;;;;;;;5.50;5.03;;;34.60;68.30;;;;;;5075120;28;20074;-67
2022/09/04 14:16:43;;;;;;;5.65;5.25;;;34.10;69.10;;;;;;5074044;28;20048;-66
2022/09/04 14:19:16;;;;;;;5.05;4.65;;;33.70;70.20;;;;;;5089453;28;20059;-66
2022/09/04 14:22:01;;;;;;;4.80;4.40;;;32.60;72.30;;;;;;5092945;28;20117;-65
2022/09/04 14:25:07;;;;;;;4.53;4.18;;;33.70;71.30;;;;;;5097070;28;20044;-66
2022/09/04 14:28:05;;;;;;;4.20;3.80;;;36.50;68.10;;;;;;5088252;28;20040;-67
2022/09/04 14:31:06;;;;;;;5.05;4.50;;;38.40;64.30;;;;;;5102187;28;20043;-65
2022/09/04 14:34:00;;;;;;;4.70;4.30;;;39.50;61.90;;;;;;5090528;28;20518;-65